Indianapolis, Indiana
Traffic Map
Current Weather Conditions
Indianapolis, Indiana
Overcast
Overcast
-2°
Feels Like: -7°
Wind Chill: -7° Ceiling: 2600
Heat Index: -2° Visibility: 9mi
Dew Point: -7° Wind: 10mph
Humidity: 69% Direction: 120° (ESE)
Pressure: 30.02in Gusts: 0mph
Raw Report DataKIND 031254Z 12009KT 9SM OVC026 M02/M07 A3002 RMK AO2 SLP174 T10221072
Traffic Incident Summary
Active as of:
Severity:
Category:
InformationThere was an issue retrieving the traffic information for this location. Please try a different location or try again shortly.
Advertisements
Track Severe Weather on mobile